sensor_id;sensor_type;location;lat;lon;timestamp;P1;durP1;ratioP1;P2;durP2;ratioP2
56927;SDS011;60850;52.502;13.426;2022-09-12T00:01:26;5.78;;;1.95;;
56927;SDS011;60850;52.502;13.426;2022-09-12T00:03:53;3.83;;;2.15;;
56927;SDS011;60850;52.502;13.426;2022-09-12T00:06:23;3.30;;;2.50;;
56927;SDS011;60850;52.502;13.426;2022-09-12T00:08:52;3.00;;;2.30;;
56927;SDS011;60850;52.502;13.426;2022-09-12T00:11:21;4.80;;;2.58;;
56927;SDS011;60850;52.502;13.426;2022-09-12T00:13:48;2.88;;;2.53;;
56927;SDS011;60850;52.502;13.426;2022-09-12T00:16:18;2.78;;;2.28;;
56927;SDS011;60850;52.502;13.426;2022-09-12T00:18:46;4.97;;;2.38;;
56927;SDS011;60850;52.502;13.426;2022-09-12T00:21:14;4.18;;;2.45;;
56927;SDS011;60850;52.502;13.426;2022-09-12T00:23:42;3.47;;;2.42;;
56927;SDS011;60850;52.502;13.426;2022-09-12T00:26:10;3.28;;;2.30;;
56927;SDS011;60850;52.502;13.426;2022-09-12T00:28:38;4.57;;;2.35;;
56927;SDS011;60850;52.502;13.426;2022-09-12T00:31:07;6.45;;;2.90;;
56927;SDS011;60850;52.502;13.426;2022-09-12T00:33:36;5.13;;;2.55;;
56927;SDS011;60850;52.502;13.426;2022-09-12T00:36:04;3.75;;;2.38;;
56927;SDS011;60850;52.502;13.426;2022-09-12T00:38:33;4.35;;;2.40;;
56927;SDS011;60850;52.502;13.426;2022-09-12T00:41:02;3.15;;;2.33;;
56927;SDS011;60850;52.502;13.426;2022-09-12T00:43:34;4.47;;;2.30;;
56927;SDS011;60850;52.502;13.426;2022-09-12T00:46:04;5.78;;;3.13;;
56927;SDS011;60850;52.502;13.426;2022-09-12T00:48:40;5.85;;;3.00;;
56927;SDS011;60850;52.502;13.426;2022-09-12T00:51:09;4.72;;;2.58;;
56927;SDS011;60850;52.502;13.426;2022-09-12T00:53:36;3.78;;;2.67;;
56927;SDS011;60850;52.502;13.426;2022-09-12T00:56:04;6.10;;;2.97;;
56927;SDS011;60850;52.502;13.426;2022-09-12T00:58:34;5.65;;;2.90;;
56927;SDS011;60850;52.502;13.426;2022-09-12T01:01:05;3.60;;;2.63;;
56927;SDS011;60850;52.502;13.426;2022-09-12T01:03:32;5.13;;;2.63;;
56927;SDS011;60850;52.502;13.426;2022-09-12T01:06:02;5.05;;;2.88;;
56927;SDS011;60850;52.502;13.426;2022-09-12T01:08:35;3.90;;;2.40;;
56927;SDS011;60850;52.502;13.426;2022-09-12T01:11:05;5.03;;;3.00;;
56927;SDS011;60850;52.502;13.426;2022-09-12T01:13:34;4.82;;;3.10;;
56927;SDS011;60850;52.502;13.426;2022-09-12T01:16:03;3.75;;;2.63;;
56927;SDS011;60850;52.502;13.426;2022-09-12T01:18:33;3.25;;;2.42;;
56927;SDS011;60850;52.502;13.426;2022-09-12T01:21:17;5.47;;;3.30;;
56927;SDS011;60850;52.502;13.426;2022-09-12T01:27:05;5.95;;;3.20;;
56927;SDS011;60850;52.502;13.426;2022-09-12T01:32:50;4.00;;;2.80;;
56927;SDS011;60850;52.502;13.426;2022-09-12T01:35:48;4.20;;;2.67;;
56927;SDS011;60850;52.502;13.426;2022-09-12T01:38:26;4.47;;;3.03;;
56927;SDS011;60850;52.502;13.426;2022-09-12T01:40:58;4.47;;;3.10;;
56927;SDS011;60850;52.502;13.426;2022-09-12T01:43:35;3.30;;;2.72;;
56927;SDS011;60850;52.502;13.426;2022-09-12T01:46:14;4.82;;;2.90;;
56927;SDS011;60850;52.502;13.426;2022-09-12T01:48:45;4.28;;;3.05;;
56927;SDS011;60850;52.502;13.426;2022-09-12T01:51:20;3.83;;;2.78;;
56927;SDS011;60850;52.502;13.426;2022-09-12T01:53:51;5.90;;;3.70;;
56927;SDS011;60850;52.502;13.426;2022-09-12T01:56:23;4.45;;;3.00;;
56927;SDS011;60850;52.502;13.426;2022-09-12T01:58:53;8.13;;;3.67;;
56927;SDS011;60850;52.502;13.426;2022-09-12T02:01:25;6.93;;;2.90;;
56927;SDS011;60850;52.502;13.426;2022-09-12T02:03:58;4.45;;;2.60;;
56927;SDS011;60850;52.502;13.426;2022-09-12T02:06:34;6.75;;;3.30;;
56927;SDS011;60850;52.502;13.426;2022-09-12T02:09:07;4.97;;;3.10;;
56927;SDS011;60850;52.502;13.426;2022-09-12T02:11:40;4.57;;;3.33;;
56927;SDS011;60850;52.502;13.426;2022-09-12T02:14:10;7.65;;;3.67;;
56927;SDS011;60850;52.502;13.426;2022-09-12T02:16:41;7.22;;;3.15;;
56927;SDS011;60850;52.502;13.426;2022-09-12T02:19:14;8.55;;;3.53;;
56927;SDS011;60850;52.502;13.426;2022-09-12T02:21:44;8.00;;;3.38;;
56927;SDS011;60850;52.502;13.426;2022-09-12T02:24:15;6.22;;;3.40;;
56927;SDS011;60850;52.502;13.426;2022-09-12T02:26:46;6.55;;;3.28;;
56927;SDS011;60850;52.502;13.426;2022-09-12T02:29:16;6.10;;;3.50;;
56927;SDS011;60850;52.502;13.426;2022-09-12T02:31:44;7.97;;;3.40;;
56927;SDS011;60850;52.502;13.426;2022-09-12T02:34:20;6.90;;;3.78;;
56927;SDS011;60850;52.502;13.426;2022-09-12T02:37:05;9.63;;;3.63;;
56927;SDS011;60850;52.502;13.426;2022-09-12T02:42:04;5.22;;;3.30;;
56927;SDS011;60850;52.502;13.426;2022-09-12T02:44:32;5.47;;;3.20;;
56927;SDS011;60850;52.502;13.426;2022-09-12T02:47:02;7.57;;;3.38;;
56927;SDS011;60850;52.502;13.426;2022-09-12T02:49:33;5.95;;;3.20;;
56927;SDS011;60850;52.502;13.426;2022-09-12T02:52:01;5.80;;;3.67;;
56927;SDS011;60850;52.502;13.426;2022-09-12T02:54:28;6.13;;;3.15;;
56927;SDS011;60850;52.502;13.426;2022-09-12T02:56:56;11.73;;;4.80;;
56927;SDS011;60850;52.502;13.426;2022-09-12T02:59:23;4.93;;;3.60;;
56927;SDS011;60850;52.502;13.426;2022-09-12T03:01:55;6.88;;;4.20;;
56927;SDS011;60850;52.502;13.426;2022-09-12T03:07:36;6.00;;;3.80;;
56927;SDS011;60850;52.502;13.426;2022-09-12T03:10:18;6.47;;;3.88;;
56927;SDS011;60850;52.502;13.426;2022-09-12T03:12:56;6.47;;;4.18;;
56927;SDS011;60850;52.502;13.426;2022-09-12T03:15:35;4.60;;;3.13;;
56927;SDS011;60850;52.502;13.426;2022-09-12T03:18:15;6.25;;;3.88;;
56927;SDS011;60850;52.502;13.426;2022-09-12T03:20:57;6.82;;;3.88;;
56927;SDS011;60850;52.502;13.426;2022-09-12T03:23:30;5.38;;;4.05;;
56927;SDS011;60850;52.502;13.426;2022-09-12T03:26:00;7.15;;;4.25;;
56927;SDS011;60850;52.502;13.426;2022-09-12T03:28:32;7.18;;;3.97;;
56927;SDS011;60850;52.502;13.426;2022-09-12T03:31:06;8.93;;;4.00;;
56927;SDS011;60850;52.502;13.426;2022-09-12T03:33:37;5.32;;;3.20;;
56927;SDS011;60850;52.502;13.426;2022-09-12T03:36:05;6.20;;;3.40;;
56927;SDS011;60850;52.502;13.426;2022-09-12T03:38:33;6.75;;;4.60;;
56927;SDS011;60850;52.502;13.426;2022-09-12T03:41:00;7.47;;;4.25;;
56927;SDS011;60850;52.502;13.426;2022-09-12T03:43:27;5.60;;;4.30;;
56927;SDS011;60850;52.502;13.426;2022-09-12T03:45:54;8.15;;;4.43;;
56927;SDS011;60850;52.502;13.426;2022-09-12T03:48:21;8.95;;;4.35;;
56927;SDS011;60850;52.502;13.426;2022-09-12T03:50:48;6.93;;;3.92;;
56927;SDS011;60850;52.502;13.426;2022-09-12T03:53:15;9.15;;;4.43;;
56927;SDS011;60850;52.502;13.426;2022-09-12T03:55:43;8.40;;;3.50;;
56927;SDS011;60850;52.502;13.426;2022-09-12T03:58:11;7.63;;;4.72;;
56927;SDS011;60850;52.502;13.426;2022-09-12T04:00:38;6.57;;;4.53;;
56927;SDS011;60850;52.502;13.426;2022-09-12T04:03:05;7.45;;;4.45;;
56927;SDS011;60850;52.502;13.426;2022-09-12T04:05:32;11.40;;;5.30;;
56927;SDS011;60850;52.502;13.426;2022-09-12T04:07:59;10.32;;;5.80;;
56927;SDS011;60850;52.502;13.426;2022-09-12T04:10:26;9.85;;;5.45;;
56927;SDS011;60850;52.502;13.426;2022-09-12T04:12:55;8.32;;;4.60;;
56927;SDS011;60850;52.502;13.426;2022-09-12T04:15:21;8.18;;;4.60;;
56927;SDS011;60850;52.502;13.426;2022-09-12T04:17:48;10.00;;;5.15;;
56927;SDS011;60850;52.502;13.426;2022-09-12T04:20:17;10.73;;;4.90;;
56927;SDS011;60850;52.502;13.426;2022-09-12T04:22:44;9.10;;;5.22;;
56927;SDS011;60850;52.502;13.426;2022-09-12T04:25:11;8.88;;;5.00;;
56927;SDS011;60850;52.502;13.426;2022-09-12T04:27:38;6.97;;;4.47;;
56927;SDS011;60850;52.502;13.426;2022-09-12T04:30:08;8.13;;;5.00;;
56927;SDS011;60850;52.502;13.426;2022-09-12T04:32:35;8.20;;;4.80;;
56927;SDS011;60850;52.502;13.426;2022-09-12T04:35:02;7.57;;;4.93;;
56927;SDS011;60850;52.502;13.426;2022-09-12T04:37:30;10.38;;;5.85;;
56927;SDS011;60850;52.502;13.426;2022-09-12T04:39:57;8.50;;;5.50;;
56927;SDS011;60850;52.502;13.426;2022-09-12T04:42:24;9.43;;;5.32;;
56927;SDS011;60850;52.502;13.426;2022-09-12T04:44:51;8.63;;;4.85;;
56927;SDS011;60850;52.502;13.426;2022-09-12T04:47:19;10.70;;;5.38;;
56927;SDS011;60850;52.502;13.426;2022-09-12T04:49:47;7.95;;;4.22;;
56927;SDS011;60850;52.502;13.426;2022-09-12T04:52:15;9.02;;;5.50;;
56927;SDS011;60850;52.502;13.426;2022-09-12T04:54:42;8.32;;;5.28;;
56927;SDS011;60850;52.502;13.426;2022-09-12T04:57:09;8.82;;;5.70;;
56927;SDS011;60850;52.502;13.426;2022-09-12T04:59:37;9.32;;;5.63;;
56927;SDS011;60850;52.502;13.426;2022-09-12T05:02:04;8.43;;;5.03;;
56927;SDS011;60850;52.502;13.426;2022-09-12T05:07:01;9.43;;;5.93;;
56927;SDS011;60850;52.502;13.426;2022-09-12T05:09:30;8.82;;;5.45;;
56927;SDS011;60850;52.502;13.426;2022-09-12T05:11:57;10.77;;;5.63;;
56927;SDS011;60850;52.502;13.426;2022-09-12T05:14:24;8.45;;;4.65;;
56927;SDS011;60850;52.502;13.426;2022-09-12T05:16:51;10.32;;;5.25;;
56927;SDS011;60850;52.502;13.426;2022-09-12T05:19:18;11.30;;;5.78;;
56927;SDS011;60850;52.502;13.426;2022-09-12T05:21:46;9.98;;;5.60;;
56927;SDS011;60850;52.502;13.426;2022-09-12T05:24:13;7.72;;;5.03;;
56927;SDS011;60850;52.502;13.426;2022-09-12T05:26:40;9.23;;;5.40;;
56927;SDS011;60850;52.502;13.426;2022-09-12T05:29:07;10.70;;;5.72;;
56927;SDS011;60850;52.502;13.426;2022-09-12T05:31:34;9.52;;;5.53;;
56927;SDS011;60850;52.502;13.426;2022-09-12T05:34:02;10.00;;;5.75;;
56927;SDS011;60850;52.502;13.426;2022-09-12T05:36:30;10.32;;;4.95;;
56927;SDS011;60850;52.502;13.426;2022-09-12T05:38:59;13.70;;;7.22;;
56927;SDS011;60850;52.502;13.426;2022-09-12T05:41:27;12.98;;;6.88;;
56927;SDS011;60850;52.502;13.426;2022-09-12T05:43:56;6.68;;;4.63;;
56927;SDS011;60850;52.502;13.426;2022-09-12T05:46:24;9.63;;;5.22;;
56927;SDS011;60850;52.502;13.426;2022-09-12T05:48:53;8.82;;;5.20;;
56927;SDS011;60850;52.502;13.426;2022-09-12T05:51:21;12.77;;;6.57;;
56927;SDS011;60850;52.502;13.426;2022-09-12T05:53:50;13.40;;;5.63;;
56927;SDS011;60850;52.502;13.426;2022-09-12T05:56:21;14.02;;;5.53;;
56927;SDS011;60850;52.502;13.426;2022-09-12T05:58:51;9.38;;;5.20;;
56927;SDS011;60850;52.502;13.426;2022-09-12T06:01:20;12.10;;;5.15;;
56927;SDS011;60850;52.502;13.426;2022-09-12T06:03:48;11.88;;;7.22;;
56927;SDS011;60850;52.502;13.426;2022-09-12T06:06:16;12.40;;;5.53;;
56927;SDS011;60850;52.502;13.426;2022-09-12T06:08:46;10.00;;;5.18;;
56927;SDS011;60850;52.502;13.426;2022-09-12T06:11:14;11.30;;;5.05;;
56927;SDS011;60850;52.502;13.426;2022-09-12T06:13:44;10.45;;;5.35;;
56927;SDS011;60850;52.502;13.426;2022-09-12T06:16:11;9.25;;;4.97;;
56927;SDS011;60850;52.502;13.426;2022-09-12T06:18:40;8.38;;;5.60;;
56927;SDS011;60850;52.502;13.426;2022-09-12T06:21:08;12.07;;;5.38;;
56927;SDS011;60850;52.502;13.426;2022-09-12T06:23:37;8.95;;;5.25;;
56927;SDS011;60850;52.502;13.426;2022-09-12T06:26:05;7.28;;;4.70;;
56927;SDS011;60850;52.502;13.426;2022-09-12T06:28:34;12.38;;;5.00;;
56927;SDS011;60850;52.502;13.426;2022-09-12T06:31:04;7.80;;;4.82;;
56927;SDS011;60850;52.502;13.426;2022-09-12T06:33:32;9.52;;;5.13;;
56927;SDS011;60850;52.502;13.426;2022-09-12T06:36:01;6.53;;;4.80;;
56927;SDS011;60850;52.502;13.426;2022-09-12T06:38:30;11.48;;;5.75;;
56927;SDS011;60850;52.502;13.426;2022-09-12T06:40:57;10.07;;;5.25;;
56927;SDS011;60850;52.502;13.426;2022-09-12T06:43:24;12.32;;;5.90;;
56927;SDS011;60850;52.502;13.426;2022-09-12T06:45:52;8.38;;;5.00;;
56927;SDS011;60850;52.502;13.426;2022-09-12T06:48:20;11.10;;;5.75;;
56927;SDS011;60850;52.502;13.426;2022-09-12T06:50:54;9.93;;;5.35;;
56927;SDS011;60850;52.502;13.426;2022-09-12T06:53:22;6.70;;;4.57;;
56927;SDS011;60850;52.502;13.426;2022-09-12T06:55:53;9.60;;;4.57;;
56927;SDS011;60850;52.502;13.426;2022-09-12T06:58:21;10.07;;;4.20;;
56927;SDS011;60850;52.502;13.426;2022-09-12T07:00:48;5.80;;;4.00;;
56927;SDS011;60850;52.502;13.426;2022-09-12T07:03:15;8.70;;;4.60;;
56927;SDS011;60850;52.502;13.426;2022-09-12T07:05:44;8.65;;;4.30;;
56927;SDS011;60850;52.502;13.426;2022-09-12T07:08:11;7.60;;;4.05;;
56927;SDS011;60850;52.502;13.426;2022-09-12T07:10:38;6.05;;;3.78;;
56927;SDS011;60850;52.502;13.426;2022-09-12T07:13:05;10.48;;;4.30;;
56927;SDS011;60850;52.502;13.426;2022-09-12T07:15:33;6.60;;;3.85;;
56927;SDS011;60850;52.502;13.426;2022-09-12T07:18:00;5.63;;;3.35;;
56927;SDS011;60850;52.502;13.426;2022-09-12T07:20:27;3.65;;;2.90;;
56927;SDS011;60850;52.502;13.426;2022-09-12T07:22:58;7.28;;;3.10;;
56927;SDS011;60850;52.502;13.426;2022-09-12T07:25:25;4.85;;;3.05;;
56927;SDS011;60850;52.502;13.426;2022-09-12T07:27:52;5.13;;;3.00;;
56927;SDS011;60850;52.502;13.426;2022-09-12T07:30:20;4.82;;;3.10;;
56927;SDS011;60850;52.502;13.426;2022-09-12T07:32:50;4.72;;;3.25;;
56927;SDS011;60850;52.502;13.426;2022-09-12T07:35:17;10.77;;;2.65;;
56927;SDS011;60850;52.502;13.426;2022-09-12T07:37:44;2.92;;;2.20;;
56927;SDS011;60850;52.502;13.426;2022-09-12T07:40:13;7.22;;;2.47;;
56927;SDS011;60850;52.502;13.426;2022-09-12T07:42:39;4.45;;;2.58;;
56927;SDS011;60850;52.502;13.426;2022-09-12T07:45:07;5.43;;;3.10;;
56927;SDS011;60850;52.502;13.426;2022-09-12T07:47:35;5.90;;;3.17;;
56927;SDS011;60850;52.502;13.426;2022-09-12T07:50:02;6.63;;;3.22;;
56927;SDS011;60850;52.502;13.426;2022-09-12T07:52:29;6.57;;;3.65;;
56927;SDS011;60850;52.502;13.426;2022-09-12T07:54:56;4.40;;;3.10;;
56927;SDS011;60850;52.502;13.426;2022-09-12T07:57:25;6.10;;;2.70;;
56927;SDS011;60850;52.502;13.426;2022-09-12T07:59:52;5.03;;;2.38;;
56927;SDS011;60850;52.502;13.426;2022-09-12T08:02:19;4.00;;;2.97;;
56927;SDS011;60850;52.502;13.426;2022-09-12T08:04:46;6.50;;;2.78;;
56927;SDS011;60850;52.502;13.426;2022-09-12T08:07:14;5.10;;;2.45;;
56927;SDS011;60850;52.502;13.426;2022-09-12T08:09:42;4.18;;;2.22;;
56927;SDS011;60850;52.502;13.426;2022-09-12T08:12:09;5.30;;;2.15;;
56927;SDS011;60850;52.502;13.426;2022-09-12T08:14:37;2.70;;;1.90;;
56927;SDS011;60850;52.502;13.426;2022-09-12T08:17:04;4.15;;;1.80;;
56927;SDS011;60850;52.502;13.426;2022-09-12T08:19:31;5.55;;;2.13;;
56927;SDS011;60850;52.502;13.426;2022-09-12T08:21:59;3.40;;;1.55;;
56927;SDS011;60850;52.502;13.426;2022-09-12T08:24:27;3.25;;;1.38;;
56927;SDS011;60850;52.502;13.426;2022-09-12T08:26:54;2.75;;;1.70;;
56927;SDS011;60850;52.502;13.426;2022-09-12T08:29:21;5.90;;;2.35;;
56927;SDS011;60850;52.502;13.426;2022-09-12T08:31:49;3.92;;;1.80;;
56927;SDS011;60850;52.502;13.426;2022-09-12T08:34:16;3.58;;;1.50;;
56927;SDS011;60850;52.502;13.426;2022-09-12T08:36:43;5.22;;;1.90;;
56927;SDS011;60850;52.502;13.426;2022-09-12T08:39:10;3.13;;;1.70;;
56927;SDS011;60850;52.502;13.426;2022-09-12T08:41:40;4.07;;;1.90;;
56927;SDS011;60850;52.502;13.426;2022-09-12T08:44:16;3.28;;;1.80;;
56927;SDS011;60850;52.502;13.426;2022-09-12T08:46:57;4.50;;;2.13;;
56927;SDS011;60850;52.502;13.426;2022-09-12T08:49:37;4.07;;;1.88;;
56927;SDS011;60850;52.502;13.426;2022-09-12T08:52:10;3.15;;;1.52;;
56927;SDS011;60850;52.502;13.426;2022-09-12T08:54:39;5.43;;;1.90;;
56927;SDS011;60850;52.502;13.426;2022-09-12T08:57:09;3.03;;;1.58;;
56927;SDS011;60850;52.502;13.426;2022-09-12T08:59:37;2.97;;;1.73;;
56927;SDS011;60850;52.502;13.426;2022-09-12T09:02:13;3.25;;;1.80;;
56927;SDS011;60850;52.502;13.426;2022-09-12T09:04:55;3.90;;;2.15;;
56927;SDS011;60850;52.502;13.426;2022-09-12T09:07:32;3.15;;;1.20;;
56927;SDS011;60850;52.502;13.426;2022-09-12T09:10:17;2.15;;;1.38;;
56927;SDS011;60850;52.502;13.426;2022-09-12T09:12:54;3.75;;;1.23;;
56927;SDS011;60850;52.502;13.426;2022-09-12T09:15:32;3.22;;;1.20;;
56927;SDS011;60850;52.502;13.426;2022-09-12T09:18:17;2.42;;;1.30;;
56927;SDS011;60850;52.502;13.426;2022-09-12T09:20:48;2.22;;;1.27;;
56927;SDS011;60850;52.502;13.426;2022-09-12T09:23:19;3.30;;;1.25;;
56927;SDS011;60850;52.502;13.426;2022-09-12T09:25:50;2.17;;;1.33;;
56927;SDS011;60850;52.502;13.426;2022-09-12T09:28:24;3.90;;;1.58;;
56927;SDS011;60850;52.502;13.426;2022-09-12T09:30:58;2.45;;;1.80;;
56927;SDS011;60850;52.502;13.426;2022-09-12T09:33:30;2.95;;;1.40;;
56927;SDS011;60850;52.502;13.426;2022-09-12T09:38:34;3.58;;;1.40;;
56927;SDS011;60850;52.502;13.426;2022-09-12T09:41:21;1.98;;;1.10;;
56927;SDS011;60850;52.502;13.426;2022-09-12T09:43:56;3.28;;;1.52;;
56927;SDS011;60850;52.502;13.426;2022-09-12T09:46:24;2.47;;;0.82;;
56927;SDS011;60850;52.502;13.426;2022-09-12T09:48:53;1.85;;;1.00;;
56927;SDS011;60850;52.502;13.426;2022-09-12T09:51:27;1.55;;;1.00;;
56927;SDS011;60850;52.502;13.426;2022-09-12T09:53:59;7.57;;;1.20;;
56927;SDS011;60850;52.502;13.426;2022-09-12T09:56:31;3.38;;;1.30;;
56927;SDS011;60850;52.502;13.426;2022-09-12T09:59:09;1.52;;;0.95;;
56927;SDS011;60850;52.502;13.426;2022-09-12T10:01:42;5.22;;;1.48;;
56927;SDS011;60850;52.502;13.426;2022-09-12T10:04:17;2.60;;;1.27;;
56927;SDS011;60850;52.502;13.426;2022-09-12T10:06:45;2.08;;;0.95;;
56927;SDS011;60850;52.502;13.426;2022-09-12T10:09:17;3.28;;;1.45;;
56927;SDS011;60850;52.502;13.426;2022-09-12T10:11:46;2.22;;;1.10;;
56927;SDS011;60850;52.502;13.426;2022-09-12T10:14:31;2.00;;;1.00;;
56927;SDS011;60850;52.502;13.426;2022-09-12T10:17:02;1.92;;;1.13;;
56927;SDS011;60850;52.502;13.426;2022-09-12T10:19:49;1.80;;;0.90;;
56927;SDS011;60850;52.502;13.426;2022-09-12T10:22:18;1.48;;;0.75;;
56927;SDS011;60850;52.502;13.426;2022-09-12T10:24:47;2.08;;;1.02;;
56927;SDS011;60850;52.502;13.426;2022-09-12T10:27:19;2.03;;;1.20;;
56927;SDS011;60850;52.502;13.426;2022-09-12T10:29:48;3.20;;;1.23;;
56927;SDS011;60850;52.502;13.426;2022-09-12T10:32:21;2.65;;;1.00;;
56927;SDS011;60850;52.502;13.426;2022-09-12T10:34:55;2.35;;;1.10;;
56927;SDS011;60850;52.502;13.426;2022-09-12T10:37:28;4.90;;;0.98;;
56927;SDS011;60850;52.502;13.426;2022-09-12T10:39:58;2.95;;;1.20;;
56927;SDS011;60850;52.502;13.426;2022-09-12T10:45:24;2.08;;;1.05;;
56927;SDS011;60850;52.502;13.426;2022-09-12T10:47:54;1.83;;;0.90;;
56927;SDS011;60850;52.502;13.426;2022-09-12T10:50:25;2.60;;;1.35;;
56927;SDS011;60850;52.502;13.426;2022-09-12T10:53:11;3.15;;;1.27;;
56927;SDS011;60850;52.502;13.426;2022-09-12T10:55:40;2.30;;;1.10;;
56927;SDS011;60850;52.502;13.426;2022-09-12T10:58:21;2.53;;;1.25;;
56927;SDS011;60850;52.502;13.426;2022-09-12T11:01:01;3.42;;;1.20;;
56927;SDS011;60850;52.502;13.426;2022-09-12T11:03:39;3.63;;;1.13;;
56927;SDS011;60850;52.502;13.426;2022-09-12T11:06:29;2.25;;;1.25;;
56927;SDS011;60850;52.502;13.426;2022-09-12T11:09:04;1.90;;;1.25;;
56927;SDS011;60850;52.502;13.426;2022-09-12T11:11:45;6.30;;;1.48;;
56927;SDS011;60850;52.502;13.426;2022-09-12T11:14:27;2.67;;;1.00;;
56927;SDS011;60850;52.502;13.426;2022-09-12T11:17:08;2.58;;;1.40;;
56927;SDS011;60850;52.502;13.426;2022-09-12T11:19:54;3.78;;;1.25;;
56927;SDS011;60850;52.502;13.426;2022-09-12T11:22:44;3.25;;;1.20;;
56927;SDS011;60850;52.502;13.426;2022-09-12T11:25:27;6.35;;;1.38;;
56927;SDS011;60850;52.502;13.426;2022-09-12T11:28:10;4.43;;;1.70;;
56927;SDS011;60850;52.502;13.426;2022-09-12T11:30:46;3.95;;;1.20;;
56927;SDS011;60850;52.502;13.426;2022-09-12T11:33:24;3.88;;;1.48;;
56927;SDS011;60850;52.502;13.426;2022-09-12T11:36:00;3.42;;;1.23;;
56927;SDS011;60850;52.502;13.426;2022-09-12T11:38:34;3.88;;;1.30;;
56927;SDS011;60850;52.502;13.426;2022-09-12T11:41:20;6.70;;;1.52;;
56927;SDS011;60850;52.502;13.426;2022-09-12T11:43:52;3.85;;;1.20;;
56927;SDS011;60850;52.502;13.426;2022-09-12T11:46:24;2.00;;;1.00;;
56927;SDS011;60850;52.502;13.426;2022-09-12T11:48:58;2.15;;;0.80;;
56927;SDS011;60850;52.502;13.426;2022-09-12T11:51:31;2.17;;;1.30;;
56927;SDS011;60850;52.502;13.426;2022-09-12T11:54:05;3.40;;;1.42;;
56927;SDS011;60850;52.502;13.426;2022-09-12T11:56:41;5.22;;;1.80;;
56927;SDS011;60850;52.502;13.426;2022-09-12T11:59:14;4.05;;;2.25;;
56927;SDS011;60850;52.502;13.426;2022-09-12T12:01:50;2.95;;;1.05;;
56927;SDS011;60850;52.502;13.426;2022-09-12T12:04:23;9.43;;;5.57;;
56927;SDS011;60850;52.502;13.426;2022-09-12T12:06:56;11.18;;;4.35;;
56927;SDS011;60850;52.502;13.426;2022-09-12T12:09:30;1.52;;;0.95;;
56927;SDS011;60850;52.502;13.426;2022-09-12T12:11:57;3.38;;;2.30;;
56927;SDS011;60850;52.502;13.426;2022-09-12T12:14:29;2.28;;;0.90;;
56927;SDS011;60850;52.502;13.426;2022-09-12T12:17:04;8.60;;;5.13;;
56927;SDS011;60850;52.502;13.426;2022-09-12T12:19:39;2.35;;;0.85;;
56927;SDS011;60850;52.502;13.426;2022-09-12T12:22:07;1.42;;;0.90;;
56927;SDS011;60850;52.502;13.426;2022-09-12T12:24:54;5.13;;;2.60;;
56927;SDS011;60850;52.502;13.426;2022-09-12T12:27:45;1.73;;;1.00;;
56927;SDS011;60850;52.502;13.426;2022-09-12T12:36:40;1.70;;;1.30;;
56927;SDS011;60850;52.502;13.426;2022-09-12T12:45:45;3.03;;;1.92;;
56927;SDS011;60850;52.502;13.426;2022-09-12T12:48:28;1.52;;;1.02;;
56927;SDS011;60850;52.502;13.426;2022-09-12T12:51:15;2.50;;;1.10;;
56927;SDS011;60850;52.502;13.426;2022-09-12T12:57:04;0.90;;;0.70;;
56927;SDS011;60850;52.502;13.426;2022-09-12T12:59:44;3.05;;;1.10;;
56927;SDS011;60850;52.502;13.426;2022-09-12T13:02:17;2.30;;;0.82;;
56927;SDS011;60850;52.502;13.426;2022-09-12T13:04:48;1.20;;;0.88;;
56927;SDS011;60850;52.502;13.426;2022-09-12T13:07:20;1.63;;;1.23;;
56927;SDS011;60850;52.502;13.426;2022-09-12T13:09:53;2.08;;;1.45;;
56927;SDS011;60850;52.502;13.426;2022-09-12T13:12:22;4.03;;;1.77;;
56927;SDS011;60850;52.502;13.426;2022-09-12T13:14:53;2.13;;;1.08;;
56927;SDS011;60850;52.502;13.426;2022-09-12T13:17:33;1.42;;;0.80;;
56927;SDS011;60850;52.502;13.426;2022-09-12T13:20:11;1.95;;;1.10;;
56927;SDS011;60850;52.502;13.426;2022-09-12T13:22:44;2.70;;;1.63;;
56927;SDS011;60850;52.502;13.426;2022-09-12T13:25:24;5.25;;;3.72;;
56927;SDS011;60850;52.502;13.426;2022-09-12T13:28:01;6.13;;;3.00;;
56927;SDS011;60850;52.502;13.426;2022-09-12T13:30:31;2.08;;;1.15;;
56927;SDS011;60850;52.502;13.426;2022-09-12T13:33:07;5.40;;;2.80;;
56927;SDS011;60850;52.502;13.426;2022-09-12T13:35:41;2.13;;;1.60;;
56927;SDS011;60850;52.502;13.426;2022-09-12T13:38:16;5.90;;;2.95;;
56927;SDS011;60850;52.502;13.426;2022-09-12T13:40:55;4.55;;;2.40;;
56927;SDS011;60850;52.502;13.426;2022-09-12T13:43:36;2.40;;;1.30;;
56927;SDS011;60850;52.502;13.426;2022-09-12T13:46:06;1.58;;;0.90;;
56927;SDS011;60850;52.502;13.426;2022-09-12T13:48:40;6.80;;;4.00;;
56927;SDS011;60850;52.502;13.426;2022-09-12T13:51:12;3.00;;;1.75;;
56927;SDS011;60850;52.502;13.426;2022-09-12T13:53:48;2.67;;;1.83;;
56927;SDS011;60850;52.502;13.426;2022-09-12T13:56:18;9.38;;;4.03;;
56927;SDS011;60850;52.502;13.426;2022-09-12T13:58:50;2.08;;;1.10;;
56927;SDS011;60850;52.502;13.426;2022-09-12T14:01:21;4.85;;;2.25;;
56927;SDS011;60850;52.502;13.426;2022-09-12T14:03:51;2.03;;;0.90;;
56927;SDS011;60850;52.502;13.426;2022-09-12T14:06:43;2.28;;;1.17;;
56927;SDS011;60850;52.502;13.426;2022-09-12T14:09:14;2.25;;;1.65;;
56927;SDS011;60850;52.502;13.426;2022-09-12T14:11:47;7.13;;;4.18;;
56927;SDS011;60850;52.502;13.426;2022-09-12T14:14:17;2.28;;;1.30;;
56927;SDS011;60850;52.502;13.426;2022-09-12T14:16:52;3.08;;;1.55;;
56927;SDS011;60850;52.502;13.426;2022-09-12T14:19:22;4.35;;;2.50;;
56927;SDS011;60850;52.502;13.426;2022-09-12T14:21:51;3.50;;;2.20;;
56927;SDS011;60850;52.502;13.426;2022-09-12T14:24:19;3.08;;;1.90;;
56927;SDS011;60850;52.502;13.426;2022-09-12T14:26:49;1.63;;;1.00;;
56927;SDS011;60850;52.502;13.426;2022-09-12T14:29:18;3.30;;;2.17;;
56927;SDS011;60850;52.502;13.426;2022-09-12T14:31:47;2.88;;;1.73;;
56927;SDS011;60850;52.502;13.426;2022-09-12T14:34:28;3.40;;;2.30;;
56927;SDS011;60850;52.502;13.426;2022-09-12T14:36:56;4.40;;;1.90;;
56927;SDS011;60850;52.502;13.426;2022-09-12T14:39:27;3.22;;;1.92;;
56927;SDS011;60850;52.502;13.426;2022-09-12T14:42:01;2.08;;;1.65;;
56927;SDS011;60850;52.502;13.426;2022-09-12T14:44:32;1.90;;;1.10;;
56927;SDS011;60850;52.502;13.426;2022-09-12T14:47:09;1.75;;;1.00;;
56927;SDS011;60850;52.502;13.426;2022-09-12T14:49:40;2.22;;;1.38;;
56927;SDS011;60850;52.502;13.426;2022-09-12T14:52:19;2.70;;;1.10;;
56927;SDS011;60850;52.502;13.426;2022-09-12T14:54:57;0.95;;;0.80;;
56927;SDS011;60850;52.502;13.426;2022-09-12T14:57:35;3.00;;;1.25;;
56927;SDS011;60850;52.502;13.426;2022-09-12T15:02:49;1.90;;;1.50;;
56927;SDS011;60850;52.502;13.426;2022-09-12T15:05:26;4.47;;;2.53;;
56927;SDS011;60850;52.502;13.426;2022-09-12T15:07:55;9.82;;;5.30;;
56927;SDS011;60850;52.502;13.426;2022-09-12T15:10:24;7.97;;;4.45;;
56927;SDS011;60850;52.502;13.426;2022-09-12T15:13:15;5.50;;;2.83;;
56927;SDS011;60850;52.502;13.426;2022-09-12T15:15:47;3.40;;;1.40;;
56927;SDS011;60850;52.502;13.426;2022-09-12T15:18:16;2.88;;;1.42;;
56927;SDS011;60850;52.502;13.426;2022-09-12T15:20:45;4.10;;;2.20;;
56927;SDS011;60850;52.502;13.426;2022-09-12T15:23:16;1.50;;;1.02;;
56927;SDS011;60850;52.502;13.426;2022-09-12T15:25:46;5.47;;;2.97;;
56927;SDS011;60850;52.502;13.426;2022-09-12T15:28:17;3.63;;;2.15;;
56927;SDS011;60850;52.502;13.426;2022-09-12T15:30:46;2.92;;;1.80;;
56927;SDS011;60850;52.502;13.426;2022-09-12T15:33:18;4.10;;;2.10;;
56927;SDS011;60850;52.502;13.426;2022-09-12T15:35:48;6.45;;;4.00;;
56927;SDS011;60850;52.502;13.426;2022-09-12T15:38:16;7.40;;;4.03;;